Whitefish Bay: Past 24 Hour Conditions

 

Peterborough Municipal Airport

07:00 PM EST 12 February 2016
Disclaimer

This table is a summary of hourly weather conditions for the past 24 hours.
Please note that these observations might not always be representative of weather conditions over their associated marine area.

Date / Time
(EST)
Wind(knots) Conditions Visibility(km) Pressure(kPa) Air tempC) Relative humidity(%) Dew pointC) Wind Chill
12 February 2016
19:00 W 7 Light Snow 16 101.1 -10 90 -11 -16
18:00 NW 8 Light Snow 4 101.0 -8 89 -9 -14
17:00 W 12 gust 22 Light Snow 0.8 101.0 -7 89 -8 -14
16:00 WSW 9 gust 16 Light Snow 16 101.0 -5 71 -10 -11
15:00 WSW 14 gust 22 Light Snow 15 101.0 -5 63 -11 -12
14:00 WSW 15 gust 25 Mostly Cloudy 16 101.0 -5 55 -12 -12
13:00 SW 15 gust 21 Cloudy 16 101.1 -5 57 -12 -13
12:00 WSW 17 gust 24 Cloudy 16 101.2 -5 59 -12 -13
11:00 SW 10 gust 18 Cloudy 16 101.3 -6 63 -12 -12
10:00 SW 9 gust 15 Cloudy 16 101.4 -7 65 -13 -14
9:00 SW 10 gust 16 Cloudy 16 101.5 -8 66 -14 -15
8:00 SW 10 gust 16 Partly Cloudy 16 101.6 -10 71 -14 -17
7:00 SW 7 Clear 16 101.7 -11 77 -14 -17
6:00 WSW 6 Clear 16 101.7 -11 76 -14 -16
5:00 SW 8 Mainly Clear 16 101.8 -11 77 -14 -18
4:00 SW 8 Clear 16 101.8 -11 78 -14 -18
3:00 SW 7 gust 16 Light Snow 16 101.9 -11 79 -14 -17
2:00 SSW 3 Cloudy 16 102.0 -16 90 -17 -19
1:00 S 3 Partly Cloudy 16 102.2 -16 85 -18 -20
0:00 SW 4 Mainly Clear 16 102.2 -16 84 -18 -22
11 February 2016
23:00 SSW 5 Clear 16 102.3 -17 89 -19 -23
22:00 calm Clear 16 102.3 -17 88 -19 *
21:00 WSW 3 Clear 16 102.3 -16 80 -19 -20
20:00 W 7 Clear 16 102.3 -15 71 -19 -23
19:00 WNW 9 Clear 16 102.2 -15 65 -20 -24

Zoom-in to make a selection

Map of Great Lakes - Lake Erie and Lake Ontario marine weather areas N Huron - 45003 W Erie - 45005 S Huron - 45008 Lake Ontario - 45012 Port Stanley - 45132 Prince Edward Point - 45135 Georgian Bay - 45137 Grimsby - 45139 Port Colborne - 45142 South Georgian Bay - 45143 Lake St Clair - 45147 South Lake Huron - 45149 Lake Simcoe - 45151 Lake Nipissing - 45152 North Channel - 45154 Ajax - 45159 Sault Ste. Marie Airport Greater Sudbury Airport North Bay Airport Gore Bay-Manitoulin Airport Great Duck Island Brockville Grenadier Island Kingston Airport Collingwood Lagoon City Muskoka Airport Parry Sound Harbour Lake Simcoe Regional Airport Wiarton Airport Goderich Sarnia Chris Hadfield Airport Tobermory Harrow AAFC Port Weller St. Catharines Airport Southeast Shoal Vineland Station Welland-Pelham Windsor Airport Burlington Lift Bridge Cobourg Hamilton Munro Int'l Airport Oshawa Municipal Airport Point Petre Toronto City Centre Airport CFB Trenton Peterborough Municipal Airport Killarney Western Islands Cove Island Long Point Port Colborne Erieau Point Pelee
Legend:
buoy Buoy
land station Land Station

Great Lakes - Lake Erie and Lake Ontario Area

Another Region

What we are doing

Date modified: